createdAt,value
2022-08-17T00:01:30.270Z,12.75
2022-08-17T00:04:10.742Z,12.10
2022-08-17T00:06:38.560Z,11.27
2022-08-17T00:09:05.617Z,12.05
2022-08-17T00:11:38.816Z,12.05
2022-08-17T00:14:08.207Z,12.00
2022-08-17T00:16:57.093Z,10.93
2022-08-17T00:19:25.637Z,11.27
2022-08-17T00:22:31.890Z,11.43
2022-08-17T00:24:42.775Z,11.63
2022-08-17T00:27:09.177Z,11.20
2022-08-17T00:29:36.272Z,11.00
2022-08-17T00:33:14.244Z,10.88
2022-08-17T00:34:49.907Z,12.40
2022-08-17T00:37:16.819Z,11.80
2022-08-17T00:39:43.727Z,12.15
2022-08-17T00:42:18.454Z,12.68
2022-08-17T00:44:45.853Z,11.70
2022-08-17T00:47:12.422Z,11.57
2022-08-17T00:49:38.806Z,10.95
2022-08-17T00:52:15.204Z,12.15
2022-08-17T00:54:44.686Z,11.35
2022-08-17T00:57:17.678Z,11.77
2022-08-17T01:00:02.612Z,11.85
2022-08-17T01:02:40.419Z,11.32
2022-08-17T01:05:14.894Z,11.20
2022-08-17T01:07:42.802Z,10.95
2022-08-17T01:10:58.157Z,11.57
2022-08-17T01:13:02.545Z,11.63
2022-08-17T01:15:31.597Z,11.95
2022-08-17T01:17:58.109Z,11.40
2022-08-17T01:20:25.050Z,12.73
2022-08-17T01:22:52.074Z,12.45
2022-08-17T01:25:20.583Z,11.57
2022-08-17T01:27:48.659Z,12.07
2022-08-17T01:30:58.639Z,12.60
2022-08-17T01:33:04.185Z,13.02
2022-08-17T01:35:30.832Z,12.52
2022-08-17T01:37:57.314Z,11.70
2022-08-17T01:40:32.786Z,12.20
2022-08-17T01:43:05.816Z,12.40
2022-08-17T01:45:34.232Z,12.27
2022-08-17T01:48:00.981Z,13.18
2022-08-17T01:50:31.872Z,12.85
2022-08-17T01:53:02.965Z,14.00
2022-08-17T01:55:38.027Z,12.93
2022-08-17T01:58:08.816Z,13.07
2022-08-17T02:00:46.687Z,13.07
2022-08-17T02:03:25.308Z,13.80
2022-08-17T02:05:53.176Z,13.23
2022-08-17T02:08:21.634Z,11.85
2022-08-17T02:11:11.519Z,13.18
2022-08-17T02:13:38.734Z,12.57
2022-08-17T02:16:05.790Z,12.95
2022-08-17T02:18:32.349Z,12.80
2022-08-17T02:20:59.211Z,12.82
2022-08-17T02:23:29.173Z,11.85
2022-08-17T02:25:57.728Z,11.35
2022-08-17T02:28:24.607Z,11.60
2022-08-17T02:31:01.818Z,12.23
2022-08-17T02:33:41.820Z,11.52
2022-08-17T02:36:10.056Z,12.20
2022-08-17T02:38:37.587Z,12.68
2022-08-17T02:41:05.006Z,13.27
2022-08-17T02:43:32.292Z,12.35
2022-08-17T02:45:58.683Z,13.38
2022-08-17T02:48:30.764Z,12.98
2022-08-17T02:51:00.020Z,13.15
2022-08-17T02:53:27.285Z,12.90
2022-08-17T02:55:53.687Z,13.40
2022-08-17T02:58:34.806Z,13.18
2022-08-17T03:01:05.182Z,11.88
2022-08-17T03:03:32.082Z,12.30
2022-08-17T03:05:58.602Z,12.82
2022-08-17T03:08:25.414Z,14.80
2022-08-17T03:10:52.265Z,14.32
2022-08-17T03:13:18.903Z,13.60
2022-08-17T03:15:46.551Z,13.60
2022-08-17T03:18:24.326Z,13.20
2022-08-17T03:20:53.244Z,12.40
2022-08-17T03:23:24.150Z,12.93
2022-08-17T03:25:52.997Z,12.85
2022-08-17T03:28:21.172Z,12.82
2022-08-17T03:30:47.791Z,13.73
2022-08-17T03:33:14.572Z,12.93
2022-08-17T03:35:41.871Z,13.93
2022-08-17T03:38:12.358Z,14.00
2022-08-17T03:40:56.674Z,13.95
2022-08-17T03:43:31.361Z,13.25
2022-08-17T03:46:34.030Z,14.68
2022-08-17T03:49:24.057Z,13.25
2022-08-17T03:52:09.420Z,13.52
2022-08-17T03:54:54.883Z,14.00
2022-08-17T03:57:21.357Z,14.23
2022-08-17T03:59:47.914Z,14.10
2022-08-17T04:02:21.421Z,13.70
2022-08-17T04:04:52.066Z,12.95
2022-08-17T04:07:20.716Z,14.07
2022-08-17T04:09:47.181Z,14.73
2022-08-17T04:12:16.164Z,14.55
2022-08-17T04:14:51.920Z,14.90
2022-08-17T04:17:20.428Z,15.48
2022-08-17T04:19:46.959Z,16.48
2022-08-17T04:22:32.089Z,14.98
2022-08-17T04:25:17.523Z,16.33
2022-08-17T04:27:44.001Z,16.05
2022-08-17T04:30:11.295Z,15.35
2022-08-17T04:33:12.545Z,14.98
2022-08-17T04:35:43.553Z,15.10
2022-08-17T04:38:13.116Z,15.98
2022-08-17T04:40:58.546Z,15.40
2022-08-17T04:43:26.903Z,15.10
2022-08-17T04:45:57.247Z,15.18
2022-08-17T04:48:36.226Z,15.15
2022-08-17T04:51:16.833Z,16.48
2022-08-17T04:53:45.737Z,16.05
2022-08-17T04:56:20.625Z,16.02
2022-08-17T04:58:50.472Z,15.07
2022-08-17T05:01:23.290Z,15.63
2022-08-17T05:03:50.202Z,14.98
2022-08-17T05:06:16.666Z,16.60
2022-08-17T05:08:43.166Z,15.68
2022-08-17T05:11:10.107Z,17.00
2022-08-17T05:13:36.660Z,15.75
2022-08-17T05:16:05.499Z,15.57
2022-08-17T05:18:32.807Z,17.98
2022-08-17T05:20:59.213Z,17.48
2022-08-17T05:23:27.185Z,16.83
2022-08-17T05:26:04.305Z,16.50
2022-08-17T05:28:33.530Z,16.10
2022-08-17T05:31:03.300Z,16.60
2022-08-17T05:33:35.971Z,17.45
2022-08-17T05:36:04.705Z,17.92
2022-08-17T05:38:32.380Z,17.23
2022-08-17T05:41:03.985Z,17.60
2022-08-17T05:43:35.883Z,17.85
2022-08-17T05:46:07.794Z,19.00
2022-08-17T05:48:41.203Z,18.50
2022-08-17T05:51:29.540Z,16.38
2022-08-17T05:54:17.692Z,17.95
2022-08-17T05:57:12.418Z,18.00
2022-08-17T06:00:10.841Z,16.13
2022-08-17T06:02:53.281Z,17.17
2022-08-17T06:05:46.023Z,17.98
2022-08-17T06:08:27.308Z,20.02
2022-08-17T06:11:20.076Z,19.67
2022-08-17T06:14:07.044Z,17.00
2022-08-17T06:16:41.332Z,18.88
2022-08-17T06:19:35.915Z,17.42
2022-08-17T06:22:05.650Z,15.50
2022-08-17T06:24:47.577Z,15.68
2022-08-17T06:27:14.056Z,16.98
2022-08-17T06:29:52.428Z,16.48
2022-08-17T06:32:19.068Z,14.43
2022-08-17T06:34:46.676Z,16.20
2022-08-17T06:38:36.920Z,15.55
2022-08-17T06:41:02.056Z,17.60
2022-08-17T06:43:48.163Z,14.00
2022-08-17T06:46:25.656Z,15.52
2022-08-17T06:49:07.843Z,14.93
2022-08-17T06:51:43.179Z,15.88
2022-08-17T06:54:25.857Z,13.57
2022-08-17T06:57:02.268Z,12.88
2022-08-17T06:59:47.190Z,16.23
2022-08-17T07:02:52.040Z,12.20
2022-08-17T07:05:36.640Z,11.80
2022-08-17T07:08:26.408Z,16.98
2022-08-17T07:11:01.265Z,11.85
2022-08-17T07:13:51.078Z,10.95
2022-08-17T07:16:27.844Z,11.73
2022-08-17T07:18:56.854Z,13.15
2022-08-17T07:21:57.116Z,12.40
2022-08-17T07:24:47.191Z,11.82
2022-08-17T07:27:27.569Z,13.18
2022-08-17T07:30:18.479Z,11.38
2022-08-17T07:32:50.761Z,11.77
2022-08-17T07:35:37.573Z,10.80
2022-08-17T07:38:26.323Z,10.30
2022-08-17T07:41:02.662Z,11.25
2022-08-17T07:43:36.705Z,9.70
2022-08-17T07:46:41.679Z,11.57
2022-08-17T07:49:12.487Z,8.70
2022-08-17T07:51:40.977Z,9.20
2022-08-17T07:54:22.277Z,10.60
2022-08-17T07:56:54.488Z,9.45
2022-08-17T07:59:34.028Z,8.60
2022-08-17T08:02:02.286Z,8.70
2022-08-17T08:07:21.729Z,8.30
2022-08-17T08:10:05.933Z,8.95
2022-08-17T08:12:44.742Z,8.95
2022-08-17T08:15:22.285Z,8.82
2022-08-17T08:17:55.469Z,7.43
2022-08-17T08:20:53.443Z,8.23
2022-08-17T08:23:48.663Z,7.93
2022-08-17T08:26:26.296Z,7.63
2022-08-17T08:29:20.396Z,7.35
2022-08-17T08:32:03.795Z,7.32
2022-08-17T08:35:01.923Z,6.85
2022-08-17T08:37:42.925Z,6.72
2022-08-17T08:40:33.345Z,6.82
2022-08-17T08:43:16.624Z,6.00
2022-08-17T08:46:04.696Z,5.80
2022-08-17T08:49:10.271Z,5.30
2022-08-17T08:51:52.577Z,5.05
2022-08-17T08:54:56.828Z,5.40
2022-08-17T08:57:34.125Z,5.85
2022-08-17T09:00:14.837Z,5.10
2022-08-17T09:02:59.685Z,6.10
2022-08-17T09:05:53.470Z,5.18
2022-08-17T09:08:19.939Z,5.20
2022-08-17T09:11:08.250Z,5.60
2022-08-17T09:14:07.636Z,6.35
2022-08-17T09:17:05.753Z,5.75
2022-08-17T09:19:40.950Z,6.03
2022-08-17T09:22:42.627Z,6.53
2022-08-17T09:25:15.715Z,6.57
2022-08-17T09:27:52.353Z,6.45
2022-08-17T09:30:19.987Z,6.13
2022-08-17T09:32:55.163Z,6.20
2022-08-17T09:35:32.946Z,6.30
2022-08-17T09:38:32.378Z,5.95
2022-08-17T09:40:59.086Z,6.38
2022-08-17T09:43:54.354Z,6.35
2022-08-17T09:46:38.733Z,5.40
2022-08-17T09:49:14.988Z,5.95
2022-08-17T09:51:48.918Z,6.60
2022-08-17T09:54:42.019Z,5.90
2022-08-17T09:57:30.273Z,5.88
2022-08-17T10:00:32.572Z,6.43
2022-08-17T10:03:25.246Z,6.05
2022-08-17T10:05:59.323Z,6.13
2022-08-17T10:08:54.733Z,5.97
2022-08-17T10:11:48.293Z,5.78
2022-08-17T10:14:38.002Z,5.22
2022-08-17T10:17:30.042Z,6.10
2022-08-17T10:20:09.109Z,5.70
2022-08-17T10:23:11.627Z,5.30
2022-08-17T10:26:10.068Z,5.38
2022-08-17T10:28:47.977Z,5.10
2022-08-17T10:31:34.914Z,4.97
2022-08-17T10:34:56.375Z,4.47
2022-08-17T10:37:46.560Z,4.63
2022-08-17T10:40:46.608Z,4.68
2022-08-17T10:43:29.888Z,4.55
2022-08-17T10:46:30.890Z,4.63
2022-08-17T10:49:38.361Z,4.47
2022-08-17T10:52:21.084Z,4.70
2022-08-17T10:54:49.091Z,4.32
2022-08-17T10:57:33.736Z,4.70
2022-08-17T11:00:03.059Z,3.95
2022-08-17T11:02:39.328Z,4.10
2022-08-17T11:05:14.701Z,4.10
2022-08-17T11:08:01.649Z,4.30
2022-08-17T11:10:42.094Z,4.20
2022-08-17T11:13:37.693Z,4.65
2022-08-17T11:16:13.016Z,4.20
2022-08-17T11:18:50.711Z,3.83
2022-08-17T11:21:42.253Z,3.85
2022-08-17T11:24:33.877Z,3.78
2022-08-17T11:27:02.930Z,3.83
2022-08-17T11:30:01.831Z,4.28
2022-08-17T11:32:31.321Z,3.72
2022-08-17T11:35:22.714Z,4.70
2022-08-17T11:38:15.942Z,4.55
2022-08-17T11:41:01.015Z,4.30
2022-08-17T11:44:04.767Z,4.60
2022-08-17T11:47:09.268Z,5.18
2022-08-17T11:50:00.375Z,4.40
2022-08-17T11:52:45.987Z,5.05
2022-08-17T11:55:39.641Z,4.60
2022-08-17T11:58:30.330Z,4.47
2022-08-17T12:01:02.304Z,4.18
2022-08-17T12:03:31.905Z,4.60
2022-08-17T12:06:30.991Z,4.63
2022-08-17T12:09:34.508Z,4.80
2022-08-17T12:12:14.253Z,4.95
2022-08-17T12:17:41.030Z,4.82
2022-08-17T12:20:23.373Z,4.45
2022-08-17T12:23:00.973Z,4.13
2022-08-17T12:25:55.386Z,5.00
2022-08-17T12:28:28.150Z,4.28
2022-08-17T12:30:59.645Z,4.32
2022-08-17T12:33:28.893Z,3.70
2022-08-17T12:36:05.196Z,3.85
2022-08-17T12:38:35.005Z,4.13
2022-08-17T12:41:22.855Z,4.45
2022-08-17T12:44:04.259Z,3.85
2022-08-17T12:46:35.778Z,4.45
2022-08-17T12:49:19.528Z,4.40
2022-08-17T12:51:47.311Z,4.45
2022-08-17T12:54:57.173Z,4.38
2022-08-17T12:57:33.556Z,4.40
2022-08-17T13:00:09.454Z,4.63
2022-08-17T13:02:53.301Z,5.00
2022-08-17T13:05:41.617Z,4.25
2022-08-17T13:08:39.719Z,4.68
2022-08-17T13:11:26.470Z,4.90
2022-08-17T13:13:56.474Z,4.78
2022-08-17T13:16:26.572Z,5.20
2022-08-17T13:19:12.707Z,4.13
2022-08-17T13:21:46.037Z,4.63
2022-08-17T13:24:18.408Z,4.88
2022-08-17T13:26:51.697Z,4.80
2022-08-17T13:29:39.717Z,4.63
2022-08-17T13:32:13.209Z,4.72
2022-08-17T13:35:04.690Z,4.68
2022-08-17T13:37:32.741Z,4.97
2022-08-17T13:40:11.436Z,5.13
2022-08-17T13:42:51.843Z,4.65
2022-08-17T13:45:35.326Z,4.57
2022-08-17T13:48:13.804Z,4.50
2022-08-17T13:50:56.025Z,4.85
2022-08-17T13:53:31.301Z,4.65
2022-08-17T13:56:07.330Z,4.50
2022-08-17T13:59:00.075Z,4.60
2022-08-17T14:01:41.840Z,4.57
2022-08-17T14:04:18.392Z,4.57
2022-08-17T14:07:08.241Z,5.25
2022-08-17T14:09:39.657Z,4.88
2022-08-17T14:12:13.593Z,4.90
2022-08-17T14:14:40.676Z,4.50
2022-08-17T14:17:07.869Z,5.18
2022-08-17T14:19:36.485Z,5.53
2022-08-17T14:22:04.912Z,5.53
2022-08-17T14:24:34.511Z,4.95
2022-08-17T14:27:03.514Z,5.60
2022-08-17T14:29:31.936Z,5.65
2022-08-17T14:32:04.286Z,5.53
2022-08-17T14:34:30.727Z,5.22
2022-08-17T14:36:57.193Z,5.82
2022-08-17T14:39:23.608Z,5.72
2022-08-17T14:41:50.122Z,5.68
2022-08-17T14:44:16.981Z,4.88
2022-08-17T14:46:44.667Z,5.20
2022-08-17T14:49:13.345Z,5.22
2022-08-17T14:51:43.724Z,5.40
2022-08-17T14:54:11.822Z,4.93
2022-08-17T14:57:08.645Z,5.20
2022-08-17T14:59:44.794Z,5.35
2022-08-17T15:02:11.621Z,6.18
2022-08-17T15:04:41.879Z,5.18
2022-08-17T15:07:11.524Z,5.50
2022-08-17T15:09:38.049Z,5.60
2022-08-17T15:12:06.488Z,6.07
2022-08-17T15:14:35.349Z,5.60
2022-08-17T15:17:03.621Z,5.97
2022-08-17T15:19:30.257Z,6.03
2022-08-17T15:21:56.699Z,6.65
2022-08-17T15:24:23.324Z,5.47
2022-08-17T15:26:49.847Z,7.10
2022-08-17T15:29:16.266Z,6.97
2022-08-17T15:31:43.207Z,7.20
2022-08-17T15:34:09.654Z,6.60
2022-08-17T15:36:36.218Z,7.65
2022-08-17T15:39:03.516Z,6.90
2022-08-17T15:41:29.997Z,6.90
2022-08-17T15:43:56.840Z,6.93
2022-08-17T15:46:25.614Z,7.15
2022-08-17T15:48:56.492Z,7.57
2022-08-17T15:51:32.318Z,7.97
2022-08-17T15:54:18.871Z,7.32
2022-08-17T15:56:49.431Z,8.02
2022-08-17T15:59:15.886Z,6.80
2022-08-17T16:03:14.774Z,7.80
2022-08-17T16:04:30.947Z,6.97
2022-08-17T16:06:59.456Z,7.88
2022-08-17T16:09:25.890Z,6.80
2022-08-17T16:11:55.288Z,6.95
2022-08-17T16:14:22.808Z,6.63
2022-08-17T16:16:50.608Z,6.35
2022-08-17T16:19:17.079Z,6.82
2022-08-17T16:21:43.649Z,7.30
2022-08-17T16:24:13.354Z,6.90
2022-08-17T16:26:41.871Z,6.43
2022-08-17T16:29:08.695Z,6.43
2022-08-17T16:31:36.291Z,7.18
2022-08-17T16:34:17.766Z,7.00
2022-08-17T16:36:54.614Z,6.22
2022-08-17T16:39:22.944Z,6.95
2022-08-17T16:41:50.253Z,6.75
2022-08-17T16:44:19.283Z,6.43
2022-08-17T16:46:47.256Z,6.40
2022-08-17T16:49:24.438Z,6.95
2022-08-17T16:52:02.943Z,5.90
2022-08-17T16:54:29.325Z,6.18
2022-08-17T16:56:55.842Z,6.10
2022-08-17T16:59:31.146Z,6.10
2022-08-17T17:02:04.700Z,6.60
2022-08-17T17:04:35.079Z,5.78
2022-08-17T17:07:25.595Z,6.20
2022-08-17T17:09:55.385Z,6.57
2022-08-17T17:13:02.970Z,6.13
2022-08-17T17:15:10.614Z,7.25
2022-08-17T17:17:38.936Z,6.40
2022-08-17T17:20:11.637Z,6.25
2022-08-17T17:22:47.795Z,5.93
2022-08-17T17:25:29.387Z,6.20
2022-08-17T17:28:26.823Z,6.45
2022-08-17T17:31:23.644Z,6.43
2022-08-17T17:33:55.713Z,5.70
2022-08-17T17:36:44.763Z,6.43
2022-08-17T17:39:32.139Z,6.53
2022-08-17T17:42:02.471Z,5.93
2022-08-17T17:44:34.341Z,5.78
2022-08-17T17:47:02.757Z,5.53
2022-08-17T17:49:41.920Z,5.47
2022-08-17T17:52:30.230Z,6.38
2022-08-17T17:55:42.310Z,6.25
2022-08-17T17:58:39.253Z,5.95
2022-08-17T18:01:50.561Z,5.88
2022-08-17T18:04:40.636Z,5.88
2022-08-17T18:07:18.023Z,6.15
2022-08-17T18:10:19.411Z,6.85
2022-08-17T18:13:32.632Z,5.80
2022-08-17T18:16:00.896Z,6.50
2022-08-17T18:18:37.651Z,6.55
2022-08-17T18:21:19.208Z,6.10
2022-08-17T18:23:48.147Z,6.35
2022-08-17T18:26:36.886Z,5.80
2022-08-17T18:29:21.209Z,7.03
2022-08-17T18:31:47.996Z,5.57
2022-08-17T18:37:26.427Z,4.90
2022-08-17T18:39:52.971Z,4.63
2022-08-17T18:42:28.148Z,4.10
2022-08-17T18:44:55.481Z,5.10
2022-08-17T18:47:28.080Z,5.18
2022-08-17T18:49:58.790Z,5.22
2022-08-17T18:52:32.975Z,5.72
2022-08-17T18:55:12.179Z,4.97
2022-08-17T18:57:52.644Z,5.30
2022-08-17T19:00:40.309Z,5.65
2022-08-17T19:03:15.928Z,4.18
2022-08-17T19:05:45.974Z,4.85
2022-08-17T19:08:18.356Z,4.90
2022-08-17T19:10:47.439Z,4.90
2022-08-17T19:13:23.948Z,4.60
2022-08-17T19:16:13.814Z,4.57
2022-08-17T19:18:54.493Z,4.30
2022-08-17T19:21:41.392Z,3.90
2022-08-17T19:24:19.343Z,4.15
2022-08-17T19:27:00.276Z,4.38
2022-08-17T19:29:41.563Z,4.70
2022-08-17T19:32:10.561Z,4.30
2022-08-17T19:34:38.942Z,4.40
2022-08-17T19:37:16.398Z,5.03
2022-08-17T19:40:10.101Z,4.50
2022-08-17T19:42:47.392Z,5.15
2022-08-17T19:45:40.033Z,5.05
2022-08-17T19:48:21.489Z,4.70
2022-08-17T19:50:56.440Z,4.95
2022-08-17T19:54:06.349Z,5.47
2022-08-17T19:56:44.204Z,5.13
2022-08-17T19:59:28.713Z,5.68
2022-08-17T20:02:37.391Z,5.63
2022-08-17T20:05:15.031Z,5.40
2022-08-17T20:07:53.995Z,5.70
2022-08-17T20:10:27.015Z,6.43
2022-08-17T20:12:56.162Z,6.00
2022-08-17T20:15:30.619Z,6.60
2022-08-17T20:17:59.826Z,6.72
2022-08-17T20:20:58.818Z,6.95
2022-08-17T20:23:51.543Z,6.28
2022-08-17T20:26:26.895Z,6.68
2022-08-17T20:29:14.501Z,6.95
2022-08-17T20:31:51.616Z,6.38
2022-08-17T20:34:30.971Z,5.55
2022-08-17T20:37:26.252Z,6.30
2022-08-17T20:39:52.801Z,6.35
2022-08-17T20:42:22.246Z,6.35
2022-08-17T20:44:57.880Z,6.32
2022-08-17T20:48:15.313Z,6.10
2022-08-17T20:50:39.887Z,5.60
2022-08-17T20:53:10.040Z,5.85
2022-08-17T20:55:36.422Z,5.93
2022-08-17T20:58:24.603Z,6.30
2022-08-17T21:00:56.671Z,5.60
2022-08-17T21:03:23.350Z,5.68
2022-08-17T21:06:16.820Z,5.78
2022-08-17T21:08:53.284Z,5.75
2022-08-17T21:11:56.833Z,5.10
2022-08-17T21:14:41.671Z,5.15
2022-08-17T21:17:18.231Z,4.90
2022-08-17T21:20:11.029Z,4.35
2022-08-17T21:23:00.897Z,4.93
2022-08-17T21:25:49.376Z,4.15
2022-08-17T21:28:59.877Z,4.22
2022-08-17T21:31:45.971Z,4.13
2022-08-17T21:34:16.844Z,4.57
2022-08-17T21:36:48.019Z,4.22
2022-08-17T21:39:19.334Z,3.88
2022-08-17T21:41:57.993Z,4.75
2022-08-17T21:44:34.903Z,4.00
2022-08-17T21:47:21.917Z,4.30
2022-08-17T21:49:48.393Z,4.20
2022-08-17T21:52:17.791Z,4.25
2022-08-17T21:54:53.830Z,4.20
2022-08-17T21:57:27.233Z,4.38
2022-08-17T21:59:59.877Z,4.15
2022-08-17T22:02:33.738Z,4.55
2022-08-17T22:05:13.864Z,4.55
2022-08-17T22:07:50.796Z,4.57
2022-08-17T22:10:37.378Z,4.65
2022-08-17T22:13:16.431Z,4.85
2022-08-17T22:15:48.348Z,4.40
2022-08-17T22:18:21.734Z,4.50
2022-08-17T22:20:54.740Z,4.35
2022-08-17T22:24:01.160Z,4.35
2022-08-17T22:27:05.865Z,4.40
2022-08-17T22:29:47.283Z,4.40
2022-08-17T22:32:37.626Z,4.53
2022-08-17T22:35:18.915Z,4.32
2022-08-17T22:37:45.753Z,4.47
2022-08-17T22:40:24.536Z,3.80
2022-08-17T22:42:51.079Z,4.28
2022-08-17T22:45:17.563Z,3.90
2022-08-17T22:47:48.689Z,4.57
2022-08-17T22:50:27.008Z,3.85
2022-08-17T22:53:19.048Z,3.80
2022-08-17T22:56:09.487Z,4.28
2022-08-17T22:59:03.094Z,3.70
2022-08-17T23:01:33.114Z,3.80
2022-08-17T23:04:05.811Z,3.88
2022-08-17T23:06:34.549Z,3.95
2022-08-17T23:09:04.191Z,3.55
2022-08-17T23:11:48.967Z,3.42
2022-08-17T23:14:19.704Z,3.60
2022-08-17T23:16:47.379Z,3.83
2022-08-17T23:19:16.463Z,3.60
2022-08-17T23:21:44.769Z,3.22
2022-08-17T23:24:16.933Z,3.35
2022-08-17T23:26:43.352Z,3.65
2022-08-17T23:29:09.979Z,3.40
2022-08-17T23:31:37.568Z,3.33
2022-08-17T23:34:09.001Z,3.03
2022-08-17T23:36:35.963Z,3.20
2022-08-17T23:39:02.355Z,2.97
2022-08-17T23:41:33.822Z,2.92
2022-08-17T23:44:01.108Z,3.13
2022-08-17T23:46:27.617Z,2.95
2022-08-17T23:48:54.185Z,3.00
2022-08-17T23:51:26.770Z,2.85
2022-08-17T23:54:05.661Z,3.38
2022-08-17T23:56:37.448Z,3.33
2022-08-17T23:59:03.842Z,3.33
